Windischgarsten, Austria
Current Conditions -  °F | °C
As of 10:20 AM on Monday 26 Jan 2015 (Local Time) from LOWL Reporting Station
Light Snow Light Snow  
Wind Chill: 26°   Ceiling: 2100
Heat Index: 32°   Visibility: 6mi
Dew Point: 28°   Wind: 7mph
Humidity: 87%   Direction: 260°W
Pressure: 30.3"   Gusts: NA
Location:  47.72°N, 14.33°E
Report Text: LOWL 260820Z 26006KT 9999 -SN FEW012 SCT017 BKN021 00/M02 Q1026 R08/590194 NOSIG
Loading
Personal Weather Stations






























Interactive Weather Map New forecast layout! Learn more

10-Day Weather Forecast

Advertisements
Track Severe Weather on mobile